Relevés horaires Matro (Suisse)


Relevés horaires à Matro - Samedi 10 Janv. 2015
Heure UTC1 Température [°C] Vent [km/h] Hum. [%] Pres.4 [hPa] Visi. [Km] Nébu. [octa] Préc.5 [mm] Cond.
2m. Res. Ros. Dir.2 Vit. Moy. Raf.3
23:00 3.8 -0.5 -2.8 ONO 20.4 29.6 40.7 62 850(-1.9/3h) -- -- -- --
22:00 3.8 -1.3 -2.4 ONO 27.8 27.8 35.2 64 850(-1.5/3h) -- -- -- --
21:00 4.3 -0.5 -3.5 ONO 25.9 29.6 44.4 57 850(-1.2/3h) -- -- -- --
20:00 5.2 1.7 -6.0 ONO 16.7 18.5 25.9 44 850(-0.5/3h) -- -- -- --
19:00 5.6 2 -6.4 NO 18.5 29.6 44.4 42 850(-0.6/3h) -- -- -- --
18:00 6.1 1.7 -8.3 NO 27.8 33.3 50.0 35 850 -- -- -- --
17:00 6.6 2.3 -8.7 ONO 27.8 29.6 50.0 32 850(-0.6/3h) -- -- -- --
16:00 6.8 2.9 -7.4 NO 24.1 33.3 42.6 35 850(-0.7/3h) -- -- -- --
15:00 6.7 4.5 -6.3 O 11.1 33.3 48.2 39 850(-1.2/3h) -- -- -- --
14:00 6.6 1.9 -6.3 NNO 33.3 33.3 40.7 39 850(-1.6/3h) -- -- -- --
13:00 6.7 2.5 -5.9 NO 27.8 31.5 48.2 40 850(-2.1/3h) -- -- -- --
12:00 7.3 2.7 -6.1 NO 35.2 53.7 85.2 38 850(-1.2/3h) -- -- -- --
11:00 6.8 1.7 -3.8 NO 40.7 40.7 53.7 47 850(0.5/3h) -- -- -- --
10:00 6.7 2.8 -2.2 NO 24.1 35.2 46.3 53 850(1.5/3h) -- -- -- --
09:00 7.0 3 -2.8 NO 25.9 53.7 85.2 50 850(0.8/3h) -- -- -- --
08:00 6.2 1.4 -2.4 NO 33.3 44.4 68.5 54 850(-0.7/3h) -- -- -- --
07:00 6.1 0.4 -1.8 NNO 46.3 53.7 85.2 57 850(-0.5/3h) -- -- -- --
06:00 6.8 1.4 -2.9 NO 44.4 72.2 116.7 50 850(-0.4/3h) -- -- -- --
05:00 6.5 1 -2.2 NNO 44.4 53.7 87.0 54 850(-0.4/3h) -- -- -- --
04:00 7.2 1 -1.5 NNO 64.8 72.2 116.7 54 850(-1.0/3h) -- -- -- --
03:00 6.1 -0.1 -- NNO 55.6 66.7 116.7 -- 850(-0.2/3h) -- -- -- --
02:00 6.1 -0.5 0.4 NNO 63.0 63.0 87.0 67 850(-0.6/3h) -- -- -- --
01:00 4.8 -1.4 1.2 NO 46.3 50.0 72.2 77 850(-0.6/3h) -- -- -- --
00:00 5.1 -1.2 -0.5 NO 50.0 63.0 88.9 67 850(-0.4/3h) -- -- -- --

1 Coordinated Universal Time. Actuellement il est 14:00 locale et 12:00 UTC.

2 Le vent souffle depuis la direction indiquée vers la direction oposée.

3 Les rafales max. sont disponible 40 min après l'heure du relevé.

4 Pour les stations d'altitude (plus de 600m) le géopotentiel du niveau le plus proche de la pression obligatoire est indiqué.

5 Les stations disposant d'un diffuseur peuvent indiquer "trace". Cela signifie que des précipitations ont touchés le sol mais que la quantité est inférieure à 0.1 mm.

Copyright

Les données affichées sur cette page sont la propriété exclusive de Météo Suisse.

Récapitulatif de la journée
Température [°C] Vent [km/h] Ensoleillement4 [h] Precipitations totale5 [mm] Pression [Hpa]
Min1 Max.2 Moy.3 Max. Min Max.
0.9 7.3 43.8 116.7 5 h 12 min 0 850.0 850.0

1 Température minimale relevée entre 18:00 UTC la veille et 18:00 UTC le jour donné.

2 Température maximale relevée entre 06:00 UTC le jour donné et 06:00 UTC le lendemain.

3 Vent moyen de la journée basé sur les relevés horaires.

4 Ensoleillement en heures relevé entre 06:00 UTC la veille et 06:00 UTC le jour donné.

5 Précipitations totales tombées entre 06:00 UTC la jour donné et 06:00 UTC le lendemain.

Graphiques horaires